x

West Orca Bay - 8nm Nw Of Hinchinbrook Is , Ak (46060) Wave Buoy

2:50am - Sun 26th Feb 2017 All times are AKST. -9 hours from GMT.

  • Sig Wave height 1.0ft
  • Swell Direction
  • Peak Period 11s
  • Average Period 5s
  • Wind
    2mph, 4mph gusts
  • Sea Temp 40°f
  • Air Temp 37°f
  • Sea Pressure 1027mb
  • West Orca Bay - 8nm Nw Of Hinchinbrook  Is , Ak
  • West Orca Bay - 8nm Nw Of Hinchinbrook  Is , Ak

More Historic Weather Station data

Upgrade to MSW Pro to gain access to the past 30 days of data for over 8000 Wavebouys and Weather Stations around the globe.

Join Pro

Comparision Forecast

View Surf forecast
   
Sun 02/26 2:50am 1ft 11s 5s 2 4 mph 1027mb 40f 37f
1:50am 1ft 11s 5s 4
mph
1027.6mb 40f 38f
12:50am 1.3ft 10s 4s 4 7 mph 1028mb 40f 37f
Sat 02/25 11:50pm 1.3ft 11s 4s 9 11 mph 1028.8mb 40f 38f
10:50pm 1.3ft 11s 4s 9 11 mph 1029.5mb 40f 38f
9:50pm 1ft 14s 4s 9 11 mph 1029.7mb 40f 38f
8:50pm 1ft 14s 4s 7 9 mph 1030.7mb 41f 39f
7:50pm 1ft 14s 4s 7 9 mph 1031.3mb 40f 39f
6:50pm 1.3ft 14s 4s 7 9 mph 1031.3mb 41f 39f
5:50pm 1.3ft 3s 4s 9
mph
1031.8mb 40f 39f
4:50pm 1.6ft 10s 4s 9 11 mph 1032.3mb 40f 39f
3:50pm 1.6ft 11s 4s 13 16 mph 1032.6mb 40f 39f
2:50pm 2ft 4s 4s 11
mph
1032.6mb 40f 39f
1:50pm 2ft 4s 4s 13 16 mph 1032.6mb 41f 39f
12:50pm 2.5ft 4s 4s 11 13 mph 1033mb 40f 38f
11:50am 2.5ft 4s 4s 11 13 mph 1033mb 40f 39f
10:50am 2ft 4s 4s 11 13 mph 1032.7mb 40f 39f
9:50am 2.5ft 8s 5s 9 11 mph 1031.9mb 40f 37f
8:50am 2.5ft 9s 5s 7
mph
1031.4mb 40f 37f
7:50am 2.5ft 10s 4s 7 9 mph 1030.6mb 41f 37f
6:50am 3ft 5s 4s 11 13 mph 1030.1mb 41f 37f
5:50am 2.5ft 5s 4s 11 13 mph 1029.6mb 41f 37f
4:50am 2.5ft 10s 4s 11 13 mph 1028.8mb 41f 36f
3:50am 2.5ft 9s 4s 13 16 mph 1028mb 41f 36f
2:50am 2.5ft 9s 5s 11 13 mph 1027.5mb 41f 36f
1:50am 2ft 10s 5s 11 13 mph 1026.8mb 41f 36f
12:50am 1.6ft 10s 4s 9 11 mph 1026.4mb 41f 35f
Fri 02/24 11:50pm 1.6ft 10s 4s 9 11 mph 1026.1mb 41f 35f
10:50pm 1.6ft 10s 4s 16 18 mph 1025.6mb 41f 35f
9:50pm 1.6ft 10s 5s 13 16 mph 1025.3mb 41f 35f
8:50pm 1.3ft 10s 6s 11 13 mph 1025.7mb 41f 35f
7:50pm 1.6ft 8s 7s 11 13 mph 1025.7mb 41f 35f
6:50pm 1.6ft 10s 7s 7
mph
1026.1mb 41f 35f
5:50pm 2ft 10s 7s 4 7 mph 1026mb 41f 34f
4:50pm 1.6ft 9s 7s 7 9 mph 1026.7mb 41f 35f
3:50pm 1.3ft 8s 7s 2 4 mph 1026.9mb 41f 36f
2:50pm 1.6ft 11s 7s 2 4 mph 1027.3mb 41f 36f
1:50pm 1.6ft 9s 8s 4 7 mph 1027.8mb 41f 36f
12:50pm 1.6ft 8s 7s 2 4 mph 1028.4mb 41f 35f
11:50am 1.3ft 11s 6s 7
mph
1028.5mb 41f 35f
10:50am 1.3ft 11s 6s 2 4 mph 1028.7mb 41f 35f
9:50am 1ft 8s 7s 7 9 mph 1029mb 41f 35f
8:50am 1ft 9s 7s 7 9 mph 1029.1mb 41f 34f
7:50am 1.3ft 9s 8s 7 9 mph 1029.3mb 41f 35f
6:50am 1ft 10s 8s 4
mph
1029.5mb 41f 34f
5:50am 1ft 10s 7s 2 7 mph 1030.3mb 41f 34f
4:50am 1ft 12s 5s 9 11 mph 1030.5mb 41f 34f
3:50am 1ft 11s 5s 4 7 mph 1031.1mb 41f 34f
2:50am 1.3ft 10s 5s 7 9 mph 1030.8mb 41f 34f
1:50am 1ft 10s 5s 9 11 mph 1030.8mb 41f 35f
12:50am 1ft 8s 7s 7 9 mph 1030.9mb 41f 35f
Thu 02/23 11:50pm 1ft 8s 7s 7 9 mph 1030.9mb 41f 35f
10:50pm 1ft 10s 7s 2 4 mph 1031.5mb 41f 35f
9:50pm 1ft 10s 7s 4 7 mph 1031.6mb 41f 35f
8:50pm 1ft 9s 7s 2 4 mph 1031.7mb 41f 35f
7:50pm 1ft 9s 8s 2 4 mph 1031.9mb 41f 35f
6:50pm 1ft 10s 8s 2 4 mph 1031.9mb 41f 35f
5:50pm 1ft 10s 8s 2 4 mph 1032.2mb 41f 34f
4:50pm 1.3ft 11s 8s 4 7 mph 1032.5mb 41f 35f
3:50pm 1ft 11s 7s 4
mph
1032.5mb 41f 34f
2:50pm 1ft 10s 6s 2 4 mph 1032.3mb 41f 34f
1:50pm 1ft 10s 6s 4 7 mph 1032.6mb 41f 34f
12:50pm 1ft 10s 5s 4 7 mph 1032.6mb 41f 34f
11:50am 1.3ft 9s 5s 9 11 mph 1032.2mb 41f 34f
10:50am 1.3ft 10s 5s 9 11 mph 1032mb 41f 34f
9:50am 1.3ft 11s 7s 7 9 mph 1031.8mb 41f 33f
8:50am 2ft 10s 7s 4 7 mph 1032mb 41f 33f
7:50am 1.6ft 10s 7s 4 7 mph 1031.9mb 41f 33f
6:50am 1.3ft 10s 7s 4 7 mph 1032.2mb 41f 34f
5:50am 1.3ft 9s 8s 4 7 mph 1031.9mb 41f 34f
4:50am 1.3ft 11s 7s 2 4 mph 1032.2mb 41f 34f
3:50am 1.6ft 11s 7s 2 7 mph 1031.8mb 41f 34f
2:50am 1.3ft 11s 7s 2 4 mph 1032.2mb 41f 34f
1:50am 1.6ft 11s 7s  -  2 mph 1032.1mb 41f 34f
12:50am 1.6ft 10s 6s 4 7 mph 1031.8mb 41f 34f
Wed 02/22 11:50pm 1.6ft 10s 6s 4 7 mph 1031.2mb 41f 34f
10:50pm 1.6ft 11s 6s 4 7 mph 1030.5mb 41f 33f
9:50pm 1.6ft 8s 5s 4 7 mph 1030.1mb 41f 33f
8:50pm 2ft 8s 6s 7 11 mph 1029.5mb 41f 33f
7:50pm 2ft 8s 6s 2 7 mph 1028.5mb 41f 33f
6:50pm 2ft 9s 5s 2 7 mph 1028.5mb 41f 33f
5:50pm 2ft 8s 5s 7 9 mph 1028.5mb 41f 33f
4:50pm 2ft 9s 6s 9 11 mph 1027.6mb 41f 33f
3:50pm 2ft 8s 5s 7 11 mph 1027.2mb 41f 33f
2:50pm 1.6ft 7s 4s 7 9 mph 1026.2mb 41f 32f
1:50pm 1.6ft 3s 3s 11 13 mph 1025.9mb 41f 31f